createdAt,value
2022-08-07T00:00:07.365Z,1009.73
2022-08-07T00:05:06.469Z,1009.74
2022-08-07T00:10:25.552Z,1009.67
2022-08-07T00:15:07.193Z,1009.71
2022-08-07T00:20:06.157Z,1009.66
2022-08-07T00:25:07.001Z,1009.62
2022-08-07T00:30:06.023Z,1009.61
2022-08-07T00:35:07.088Z,1009.59
2022-08-07T00:40:06.006Z,1009.56
2022-08-07T00:45:06.786Z,1009.55
2022-08-07T00:50:19.185Z,1009.57
2022-08-07T00:55:10.377Z,1009.52
2022-08-07T01:00:05.699Z,1009.49
2022-08-07T01:05:05.639Z,1009.43
2022-08-07T01:10:11.073Z,1009.40
2022-08-07T01:15:05.599Z,1009.39
2022-08-07T01:20:05.486Z,1009.34
2022-08-07T01:25:53.575Z,1009.33
2022-08-07T01:30:06.435Z,1009.33
2022-08-07T01:35:05.465Z,1009.30
2022-08-07T01:40:05.277Z,1009.30
2022-08-07T01:45:10.113Z,1009.27
2022-08-07T01:50:06.130Z,1009.24
2022-08-07T01:55:05.094Z,1009.27
2022-08-07T02:00:13.267Z,1009.23
2022-08-07T02:05:06.129Z,1009.20
2022-08-07T02:10:04.933Z,1009.21
2022-08-07T02:15:06.021Z,1009.20
2022-08-07T02:20:09.893Z,1009.16
2022-08-07T02:25:07.184Z,1009.11
2022-08-07T02:30:07.224Z,1009.09
2022-08-07T02:35:06.109Z,1009.07
2022-08-07T02:40:30.034Z,1009.08
2022-08-07T02:45:07.426Z,1009.10
2022-08-07T02:50:05.438Z,1009.06
2022-08-07T02:55:04.406Z,1009.03
2022-08-07T03:00:05.004Z,1009.05
2022-08-07T03:05:06.764Z,1009.00
2022-08-07T03:10:04.226Z,1009.02
2022-08-07T03:15:07.724Z,1009.03
2022-08-07T03:20:04.184Z,1009.01
2022-08-07T03:25:04.078Z,1009.01
2022-08-07T03:30:05.005Z,1008.97
2022-08-07T03:35:18.136Z,1008.93
2022-08-07T03:40:16.218Z,1008.95
2022-08-07T03:45:04.831Z,1008.94
2022-08-07T03:50:03.785Z,1008.90
2022-08-07T03:55:06.954Z,1008.88
2022-08-07T04:00:04.265Z,1008.86
2022-08-07T04:05:03.644Z,1008.86
2022-08-07T04:10:06.958Z,1008.85
2022-08-07T04:15:04.960Z,1008.86
2022-08-07T04:20:05.266Z,1008.80
2022-08-07T04:25:03.399Z,1008.87
2022-08-07T04:30:05.362Z,1008.87
2022-08-07T04:35:05.520Z,1008.92
2022-08-07T04:40:03.185Z,1008.95
2022-08-07T04:45:08.171Z,1008.98
2022-08-07T04:50:04.841Z,1009.01
2022-08-07T04:55:15.316Z,1009.09
2022-08-07T05:00:09.733Z,1008.99
2022-08-07T05:05:51.952Z,1008.99
2022-08-07T05:10:04.676Z,1008.94
2022-08-07T05:15:04.504Z,1008.95
2022-08-07T05:20:05.391Z,1009.01
2022-08-07T05:25:08.742Z,1009.00
2022-08-07T05:30:03.791Z,1009.15
2022-08-07T05:35:02.650Z,1009.09
2022-08-07T05:40:16.813Z,1009.12
2022-08-07T05:45:04.424Z,1009.07
2022-08-07T05:50:03.540Z,1009.13
2022-08-07T05:55:10.166Z,1009.17
2022-08-07T06:00:03.332Z,1009.19
2022-08-07T06:05:03.584Z,1009.18
2022-08-07T06:10:05.450Z,1009.15
2022-08-07T06:15:05.694Z,1009.14
2022-08-07T06:20:04.258Z,1009.21
2022-08-07T06:25:03.002Z,1009.22
2022-08-07T06:30:02.018Z,1009.20
2022-08-07T06:35:01.954Z,1009.12
2022-08-07T06:40:15.722Z,1009.12
2022-08-07T06:45:02.796Z,1009.06
2022-08-07T06:50:03.860Z,1008.96
2022-08-07T06:55:34.390Z,1008.94
2022-08-07T07:00:12.603Z,1008.85
2022-08-07T07:05:02.609Z,1008.91
2022-08-07T07:10:01.589Z,1008.81
2022-08-07T07:15:03.336Z,1008.79
2022-08-07T07:20:01.456Z,1008.74
2022-08-07T07:25:14.225Z,1008.78
2022-08-07T07:30:10.078Z,1008.74
2022-08-07T07:35:03.852Z,1008.68
2022-08-07T07:40:01.376Z,1008.65
2022-08-07T07:45:01.205Z,1008.60
2022-08-07T07:50:33.877Z,1008.56
2022-08-07T07:55:03.457Z,1008.50
2022-08-07T08:00:01.102Z,1008.43
2022-08-07T08:05:01.069Z,1008.37
2022-08-07T08:10:05.428Z,1008.34
2022-08-07T08:15:00.915Z,1008.39
2022-08-07T08:20:22.232Z,1008.36
2022-08-07T08:25:18.776Z,1008.30
2022-08-07T08:30:02.985Z,1008.20
2022-08-07T08:35:00.688Z,1008.20
2022-08-07T08:40:02.754Z,1008.12
2022-08-07T08:45:00.575Z,1008.09
2022-08-07T08:50:04.646Z,1008.11
2022-08-07T08:55:01.262Z,1008.10
2022-08-07T09:00:01.373Z,1008.04
